Time;durP1;ratioP1;P1;durP2;ratioP2;P2;SDS_P1;SDS_P2;PMS_P1;PMS_P2;Temp;Humidity;BMP_temperature;BMP_pressure;BME280_temperature;BME280_humidity;BME280_pressure;Samples;Min_cycle;Max_cycle;Signal;HPM_P1;HPM_P2
2021/01/16 00:01:21;;;;;;;142.07;52.27;;;;;;;-8.98;71.94;99172.18;2221903;80;21470;-79
2021/01/16 00:04:22;;;;;;;118.90;45.30;;;;;;;-8.93;71.72;99177.29;2221612;80;21145;-79
2021/01/16 00:07:23;;;;;;;113.67;42.60;;;;;;;-8.88;71.44;99173.54;2222242;80;21142;-80
2021/01/16 00:10:30;;;;;;;100.03;39.73;;;;;;;-8.87;71.05;99174.43;2221664;80;21133;-78
2021/01/16 00:13:33;;;;;;;113.37;40.33;;;;;;;-8.85;70.93;99176.73;2222010;80;21228;-78
2021/01/16 00:16:35;;;;;;;118.53;42.87;;;;;;;-8.85;71.03;99173.82;2222125;80;21408;-79
2021/01/16 00:19:36;;;;;;;113.70;41.73;;;;;;;-8.83;71.35;99177.38;2221587;80;21129;-79
2021/01/16 00:22:37;;;;;;;118.63;41.97;;;;;;;-8.78;71.52;99174.00;2221836;80;21117;-78
2021/01/16 00:25:38;;;;;;;103.80;39.80;;;;;;;-8.77;71.47;99169.09;2221732;80;21137;-78
2021/01/16 00:28:39;;;;;;;99.97;37.53;;;;;;;-8.72;71.39;99175.83;2221720;80;21145;-79
2021/01/16 00:31:42;;;;;;;92.23;33.30;;;;;;;-8.70;71.44;99171.42;2221511;80;21134;-78
2021/01/16 00:34:43;;;;;;;116.13;38.17;;;;;;;-8.64;71.42;99179.09;2221728;80;21142;-79
2021/01/16 00:37:44;;;;;;;103.50;35.10;;;;;;;-8.62;71.28;99180.13;2222028;80;21133;-78
2021/01/16 00:40:45;;;;;;;100.70;35.17;;;;;;;-8.59;71.32;99174.96;2222033;80;21189;-79
2021/01/16 00:43:46;;;;;;;103.00;35.47;;;;;;;-8.52;71.30;99179.83;2221542;80;21149;-79
2021/01/16 00:46:47;;;;;;;86.97;30.73;;;;;;;-8.46;70.94;99179.11;2218296;80;21146;-80
2021/01/16 00:49:49;;;;;;;92.13;31.73;;;;;;;-8.39;70.95;99185.62;2218831;80;21141;-79
2021/01/16 00:52:50;;;;;;;87.87;31.47;;;;;;;-8.38;70.30;99184.48;2218355;80;21157;-79
2021/01/16 00:55:51;;;;;;;92.60;30.33;;;;;;;-8.34;70.53;99184.39;2218195;80;21138;-79
2021/01/16 00:58:52;;;;;;;75.90;27.87;;;;;;;-8.29;70.76;99174.64;2218080;80;21134;-79
2021/01/16 01:01:53;;;;;;;84.07;29.60;;;;;;;-8.22;70.40;99179.13;2217396;80;21177;-78
2021/01/16 01:04:54;;;;;;;72.23;28.10;;;;;;;-8.15;70.58;99169.16;2216927;80;21130;-79
2021/01/16 01:07:55;;;;;;;65.50;24.93;;;;;;;-8.08;70.36;99168.58;2218032;80;21130;-78
2021/01/16 01:10:56;;;;;;;72.90;28.27;;;;;;;-8.00;70.64;99168.36;2218302;80;21462;-79
2021/01/16 01:13:57;;;;;;;84.30;34.50;;;;;;;-8.00;70.62;99174.31;2218516;80;21154;-78
2021/01/16 01:17:00;;;;;;;87.60;35.03;;;;;;;-7.97;70.54;99178.39;2218328;80;21126;-79
2021/01/16 01:20:04;;;;;;;82.70;31.30;;;;;;;-7.91;70.55;99176.77;2218565;80;21193;-79
2021/01/16 01:23:06;;;;;;;61.83;24.30;;;;;;;-7.84;70.41;99178.71;2218354;80;21154;-78
2021/01/16 01:26:07;;;;;;;72.87;26.67;;;;;;;-7.76;70.26;99168.02;2218265;80;21142;-78
2021/01/16 01:29:08;;;;;;;63.33;25.87;;;;;;;-7.70;70.37;99168.55;2218564;80;21134;-79
2021/01/16 01:32:09;;;;;;;74.27;28.13;;;;;;;-7.58;70.48;99169.99;2218661;80;21388;-79
2021/01/16 01:35:10;;;;;;;68.27;26.50;;;;;;;-7.48;70.36;99162.42;2217015;80;21145;-79
2021/01/16 01:38:11;;;;;;;78.47;28.10;;;;;;;-7.39;70.50;99163.22;2216960;80;21248;-79
2021/01/16 01:41:13;;;;;;;70.07;26.77;;;;;;;-7.31;70.42;99162.61;2217459;80;21178;-78
2021/01/16 01:44:13;;;;;;;70.07;28.20;;;;;;;-7.25;70.28;99160.22;2216284;80;21141;-78
2021/01/16 01:47:15;;;;;;;68.80;25.47;;;;;;;-7.16;70.05;99166.07;2209400;81;21496;-79
2021/01/16 01:50:16;;;;;;;66.03;26.90;;;;;;;-7.04;69.97;99165.33;2209513;81;21110;-79
2021/01/16 01:53:17;;;;;;;57.63;24.30;;;;;;;-6.98;69.83;99163.31;2209542;81;21134;-79
2021/01/16 01:56:18;;;;;;;73.80;27.87;;;;;;;-6.95;69.89;99157.23;2209995;81;21134;-80
2021/01/16 01:59:19;;;;;;;71.10;26.63;;;;;;;-6.89;69.83;99160.31;2211264;81;21147;-79
2021/01/16 02:02:20;;;;;;;79.60;30.23;;;;;;;-6.85;69.69;99152.20;2210942;81;21205;-79
2021/01/16 02:05:21;;;;;;;72.83;26.13;;;;;;;-6.83;69.59;99160.45;2211195;81;21126;-79
2021/01/16 02:08:22;;;;;;;75.60;27.77;;;;;;;-6.78;69.41;99153.22;2211395;81;21169;-79
2021/01/16 02:11:23;;;;;;;69.50;27.80;;;;;;;-6.81;69.48;99146.62;2211789;81;21134;-80
2021/01/16 02:14:24;;;;;;;69.13;26.60;;;;;;;-6.80;69.42;99142.05;2211514;81;21531;-80
2021/01/16 02:17:27;;;;;;;60.73;26.20;;;;;;;-6.76;69.60;99139.00;2211801;81;21388;-80
2021/01/16 02:20:28;;;;;;;57.13;24.73;;;;;;;-6.75;69.31;99135.33;2211225;81;21169;-79
2021/01/16 02:23:29;;;;;;;71.10;26.80;;;;;;;-6.69;69.62;99123.52;2211904;81;21123;-79
2021/01/16 02:26:31;;;;;;;69.13;26.27;;;;;;;-6.61;69.77;99129.23;2211392;81;21150;-79
2021/01/16 02:29:32;;;;;;;77.33;26.83;;;;;;;-6.60;69.71;99131.89;2211156;81;21145;-78
2021/01/16 02:32:33;;;;;;;67.70;26.80;;;;;;;-6.57;69.60;99132.15;2210588;81;21440;-79
2021/01/16 02:35:34;;;;;;;57.93;23.77;;;;;;;-6.52;69.96;99129.98;2210484;81;21138;-79
2021/01/16 02:38:35;;;;;;;51.63;23.47;;;;;;;-6.49;69.70;99137.47;2211185;81;21154;-79
2021/01/16 02:41:36;;;;;;;46.53;18.93;;;;;;;-6.40;69.79;99134.80;2210359;81;21177;-78
2021/01/16 02:44:37;;;;;;;46.47;18.70;;;;;;;-6.36;69.43;99135.94;2210499;80;21460;-80
2021/01/16 02:47:38;;;;;;;42.67;18.10;;;;;;;-6.40;69.78;99133.91;2210458;81;21098;-79
2021/01/16 02:50:39;;;;;;;47.47;17.33;;;;;;;-6.36;69.97;99124.51;2210574;81;21153;-79
2021/01/16 02:53:40;;;;;;;36.77;15.80;;;;;;;-6.31;69.94;99134.66;2210816;81;21401;-79
2021/01/16 02:56:41;;;;;;;34.83;15.40;;;;;;;-6.26;69.68;99133.38;2211727;81;21102;-80
2021/01/16 02:59:44;;;;;;;40.17;15.73;;;;;;;-6.26;69.43;99138.47;2211604;81;21397;-80
2021/01/16 03:02:45;;;;;;;32.03;15.60;;;;;;;-6.31;69.44;99147.36;2211182;81;21317;-79
2021/01/16 03:05:46;;;;;;;40.23;17.10;;;;;;;-6.34;69.75;99133.14;2210324;81;21122;-79
2021/01/16 03:08:47;;;;;;;36.63;17.30;;;;;;;-6.30;69.79;99134.78;2210733;81;21252;-80
2021/01/16 03:11:48;;;;;;;45.17;17.80;;;;;;;-6.32;69.64;99130.34;2210238;81;21134;-78
2021/01/16 03:14:49;;;;;;;41.67;18.73;;;;;;;-6.37;69.75;99120.19;2210137;81;21858;-79
2021/01/16 03:17:51;;;;;;;49.47;21.33;;;;;;;-6.43;70.14;99116.77;2210766;81;21130;-79
2021/01/16 03:20:52;;;;;;;46.90;21.60;;;;;;;-6.33;70.33;99106.98;2210537;81;21201;-79
2021/01/16 03:23:53;;;;;;;51.40;21.80;;;;;;;-6.27;70.22;99105.81;2210540;81;21161;-79
2021/01/16 03:26:54;;;;;;;55.00;22.27;;;;;;;-6.21;70.23;99096.15;2210876;81;21149;-79
2021/01/16 03:29:55;;;;;;;48.37;20.50;;;;;;;-6.21;70.09;99096.15;2210814;81;21134;-79
2021/01/16 03:32:56;;;;;;;55.03;24.63;;;;;;;-6.18;70.29;99096.78;2211051;81;21423;-79
2021/01/16 03:35:57;;;;;;;57.20;23.20;;;;;;;-6.24;70.32;99098.83;2211347;81;21182;-81
2021/01/16 03:38:58;;;;;;;74.73;27.70;;;;;;;-6.34;70.54;99096.31;2210702;81;21138;-79
2021/01/16 03:41:59;;;;;;;69.30;27.97;;;;;;;-6.37;70.85;99103.68;2211412;81;21166;-80
2021/01/16 03:45:00;;;;;;;51.93;20.93;;;;;;;-6.32;70.95;99110.91;2211462;80;21180;-79
2021/01/16 03:48:01;;;;;;;49.83;20.07;;;;;;;-6.26;71.06;99111.79;2211634;81;21150;-80
2021/01/16 03:51:02;;;;;;;44.27;18.13;;;;;;;-6.20;71.03;99108.47;2211833;81;21149;-80
2021/01/16 03:54:04;;;;;;;45.60;19.17;;;;;;;-6.18;70.99;99110.75;2211667;81;21423;-79
2021/01/16 03:57:05;;;;;;;41.53;17.97;;;;;;;-6.19;71.04;99113.67;2211526;81;21167;-79
2021/01/16 04:00:06;;;;;;;49.53;19.50;;;;;;;-6.22;71.06;99111.27;2211480;81;21162;-79
2021/01/16 04:03:07;;;;;;;53.27;22.20;;;;;;;-6.30;71.27;99103.03;2211023;81;21165;-79
2021/01/16 04:06:08;;;;;;;57.40;24.13;;;;;;;-6.32;71.40;99115.10;2210974;81;21146;-79
2021/01/16 04:09:09;;;;;;;46.93;19.20;;;;;;;-6.31;71.50;99110.53;2209924;81;21126;-79
2021/01/16 04:12:10;;;;;;;53.93;22.97;;;;;;;-6.30;71.63;99103.41;2210857;81;21150;-80
2021/01/16 04:15:11;;;;;;;44.43;19.67;;;;;;;-6.28;71.74;99102.77;2212172;81;21145;-79
2021/01/16 04:18:14;;;;;;;46.50;17.77;;;;;;;-6.22;71.87;99108.34;2211689;81;21134;-80
2021/01/16 04:21:15;;;;;;;42.43;18.73;;;;;;;-6.23;71.97;99106.57;2211232;81;21165;-80
2021/01/16 04:24:16;;;;;;;36.27;16.20;;;;;;;-6.25;72.08;99099.21;2210098;81;21138;-80
2021/01/16 04:27:17;;;;;;;36.37;15.77;;;;;;;-6.19;72.32;99096.27;2209829;81;21134;-81
2021/01/16 04:30:19;;;;;;;29.57;13.43;;;;;;;-6.16;72.30;99095.25;2209687;81;21138;-79
2021/01/16 04:33:20;;;;;;;41.83;17.17;;;;;;;-5.40;83.45;99091.50;2209795;81;21134;-80
2021/01/16 04:36:21;;;;;;;41.40;17.77;;;;;;;-4.33;72.46;99091.23;2210285;81;21138;-80
2021/01/16 04:39:22;;;;;;;41.73;19.47;;;;;;;-4.84;70.84;99085.28;2209882;81;21123;-79
2021/01/16 04:42:23;;;;;;;37.47;16.13;;;;;;;-5.14;70.97;99077.88;2209477;81;21302;-82
2021/01/16 04:45:24;;;;;;;35.27;15.03;;;;;;;-5.55;71.41;99077.20;2210305;80;21514;-80
2021/01/16 04:48:25;;;;;;;36.70;15.63;;;;;;;-5.55;71.41;99077.20;2216389;80;21187;-79
2021/01/16 04:51:26;;;;;;;33.37;15.70;;;;;;;-5.66;71.94;99078.03;2215669;80;21149;-79
2021/01/16 04:54:27;;;;;;;33.93;15.70;;;;;;;-5.72;72.22;99076.27;2216404;80;21256;-79
2021/01/16 04:57:28;;;;;;;39.13;15.80;;;;;;;-5.73;72.56;99070.69;2215102;80;21142;-79
2021/01/16 05:00:29;;;;;;;42.77;19.70;;;;;;;-5.74;72.75;99072.73;2214746;80;21276;-78
2021/01/16 05:03:31;;;;;;;36.87;16.40;;;;;;;-5.72;72.93;99069.92;2215539;80;21157;-78
2021/01/16 05:06:32;;;;;;;32.70;15.60;;;;;;;-5.72;73.29;99069.53;2215057;80;21618;-78
2021/01/16 05:09:33;;;;;;;39.50;15.17;;;;;;;-5.70;73.33;99070.92;2215087;80;21260;-79
2021/01/16 05:12:34;;;;;;;41.57;17.77;;;;;;;-5.71;73.17;99070.04;2215392;80;21260;-79
2021/01/16 05:15:35;;;;;;;44.23;20.53;;;;;;;-5.70;73.26;99062.03;2215945;80;21130;-79
2021/01/16 05:18:37;;;;;;;44.23;18.53;;;;;;;-5.73;73.38;99064.33;2215246;80;21252;-79
2021/01/16 05:21:38;;;;;;;51.23;20.77;;;;;;;-5.69;73.40;99070.16;2215810;80;21297;-79
2021/01/16 05:24:39;;;;;;;41.90;18.87;;;;;;;-5.69;73.46;99065.08;2216132;80;21126;-79
2021/01/16 05:27:40;;;;;;;38.30;15.80;;;;;;;-5.65;73.57;99060.73;2215718;80;21847;-79
2021/01/16 05:30:41;;;;;;;34.77;17.13;;;;;;;-5.63;73.50;99057.92;2215281;80;21236;-78
2021/01/16 05:33:42;;;;;;;36.73;17.90;;;;;;;-5.63;73.61;99046.48;2215599;80;21142;-79
2021/01/16 05:36:43;;;;;;;41.83;20.53;;;;;;;-5.61;73.66;99058.92;2215143;80;21252;-79
2021/01/16 05:39:44;;;;;;;46.73;19.53;;;;;;;-5.58;73.74;99060.44;2215635;80;21094;-78
2021/01/16 05:42:46;;;;;;;35.30;18.53;;;;;;;-5.53;73.75;99057.86;2215242;80;21165;-78
2021/01/16 05:45:47;;;;;;;50.30;21.87;;;;;;;-5.53;73.80;99060.41;2216539;80;21291;-79
2021/01/16 05:48:49;;;;;;;43.50;19.77;;;;;;;-5.53;73.84;99066.77;2216342;80;21284;-77
2021/01/16 05:51:50;;;;;;;50.53;21.67;;;;;;;-5.53;73.96;99061.30;2216675;80;21219;-79
2021/01/16 05:54:51;;;;;;;48.13;22.80;;;;;;;-5.51;74.06;99062.69;2216483;80;21284;-79
2021/01/16 05:57:52;;;;;;;46.90;20.67;;;;;;;-5.49;74.25;99063.30;2215777;80;21145;-79
2021/01/16 06:00:53;;;;;;;46.90;23.40;;;;;;;-5.51;74.14;99055.94;2215070;80;21567;-78
2021/01/16 06:03:55;;;;;;;43.47;19.80;;;;;;;-5.46;74.44;99062.66;2214413;80;21260;-79
2021/01/16 06:06:56;;;;;;;33.80;16.30;;;;;;;-5.47;74.38;99066.86;2215853;80;21288;-83
2021/01/16 06:09:57;;;;;;;33.17;17.07;;;;;;;-5.50;74.64;99064.45;2215785;80;21114;-78
2021/01/16 06:12:58;;;;;;;41.47;19.73;;;;;;;-5.52;74.69;99062.19;2216012;80;21119;-80
2021/01/16 06:15:59;;;;;;;57.73;28.60;;;;;;;-5.54;74.78;99051.89;2216360;80;21272;-79
2021/01/16 06:19:00;;;;;;;42.20;20.20;;;;;;;-5.51;74.77;99041.06;2216261;80;21457;-78
2021/01/16 06:22:01;;;;;;;49.83;22.27;;;;;;;-5.49;74.75;99043.34;2216332;80;21315;-78
2021/01/16 06:25:02;;;;;;;34.27;17.47;;;;;;;-5.45;74.78;99033.91;2216951;80;21268;-81
2021/01/16 06:28:04;;;;;;;35.60;19.07;;;;;;;-5.42;74.87;99030.32;2216296;80;21535;-79
2021/01/16 06:31:05;;;;;;;40.10;20.80;;;;;;;-5.42;74.96;99036.68;2216173;80;21249;-80
2021/01/16 06:34:06;;;;;;;55.37;28.97;;;;;;;-5.43;74.84;99037.45;2215863;80;21121;-79
2021/01/16 06:37:08;;;;;;;62.23;28.23;;;;;;;-5.40;74.94;99052.95;2216129;80;21288;-79
2021/01/16 06:40:09;;;;;;;55.60;24.83;;;;;;;-5.38;74.78;99054.34;2215836;80;21271;-78
2021/01/16 06:43:10;;;;;;;51.67;24.57;;;;;;;-5.34;74.86;99047.06;2215556;80;21260;-80
2021/01/16 06:46:11;;;;;;;43.30;21.77;;;;;;;-5.28;74.87;99047.52;2215887;80;21157;-78
2021/01/16 06:49:12;;;;;;;42.37;21.40;;;;;;;-5.23;74.69;99047.48;2215908;80;21612;-78
2021/01/16 06:52:13;;;;;;;42.43;22.97;;;;;;;-5.19;74.72;99049.91;2215663;80;21110;-82
2021/01/16 06:55:14;;;;;;;53.67;25.03;;;;;;;-5.12;74.64;99049.61;2215760;80;21252;-80
2021/01/16 06:58:15;;;;;;;52.37;24.40;;;;;;;-5.06;74.51;99045.37;2216392;80;21145;-78
2021/01/16 07:01:16;;;;;;;58.73;26.33;;;;;;;-5.01;74.42;99047.87;2216215;80;21665;-79
2021/01/16 07:04:20;;;;;;;62.63;30.63;;;;;;;-4.94;74.26;99043.73;2215128;80;21542;-79
2021/01/16 07:07:21;;;;;;;52.97;25.57;;;;;;;-4.86;74.21;99047.36;2215474;80;21141;-78
2021/01/16 07:10:22;;;;;;;50.13;25.57;;;;;;;-4.79;74.22;99046.16;2215175;80;21149;-78
2021/01/16 07:13:24;;;;;;;58.20;29.23;;;;;;;-4.77;74.20;99041.17;2214942;80;21272;-78
2021/01/16 07:16:25;;;;;;;49.13;24.73;;;;;;;-4.74;74.19;99046.50;2214981;80;21256;-79
2021/01/16 07:19:26;;;;;;;57.00;26.40;;;;;;;-4.67;74.20;99043.24;2215151;80;21467;-78
2021/01/16 07:22:27;;;;;;;46.20;24.50;;;;;;;-4.59;74.15;99042.15;2215814;80;21602;-78
2021/01/16 07:25:28;;;;;;;37.23;21.53;;;;;;;-4.47;74.08;99042.55;2215174;80;21134;-79
2021/01/16 07:28:29;;;;;;;36.17;21.30;;;;;;;-4.40;74.02;99044.77;2215172;80;21249;-80
2021/01/16 07:31:31;;;;;;;39.83;21.03;;;;;;;-4.29;74.00;99043.53;2216102;80;21244;-79
2021/01/16 07:34:32;;;;;;;36.90;20.23;;;;;;;-4.17;73.91;99043.13;2216022;80;21276;-77
2021/01/16 07:37:33;;;;;;;39.47;22.20;;;;;;;-3.97;73.79;99047.11;2215978;80;21248;-81
2021/01/16 07:40:34;;;;;;;58.03;26.23;;;;;;;-3.82;73.50;99045.14;2215769;80;21194;-79
2021/01/16 07:43:36;;;;;;;46.27;23.50;;;;;;;-3.67;73.07;99038.57;2215756;80;21260;-79
2021/01/16 07:46:37;;;;;;;59.00;27.60;;;;;;;-3.51;72.89;99040.14;2217321;80;21284;-80
2021/01/16 07:49:38;;;;;;;48.30;21.47;;;;;;;-3.37;72.39;99035.63;2219585;80;21267;-79
2021/01/16 07:52:39;;;;;;;54.10;25.13;;;;;;;-3.28;72.35;99038.81;2220415;80;21264;-77
2021/01/16 07:55:40;;;;;;;33.87;19.40;;;;;;;-3.23;72.21;99039.13;2219482;80;21273;-81
2021/01/16 07:58:41;;;;;;;47.73;24.57;;;;;;;-3.21;71.97;99043.55;2218708;80;21252;-78
2021/01/16 08:01:42;;;;;;;37.80;21.63;;;;;;;-3.31;72.22;99040.27;2218472;80;21296;-78
2021/01/16 08:04:43;;;;;;;43.13;20.70;;;;;;;-3.35;72.37;99049.38;2217774;80;21298;-79
2021/01/16 08:07:44;;;;;;;36.73;18.97;;;;;;;-3.40;72.48;99045.63;2218865;80;21276;-78
2021/01/16 08:10:47;;;;;;;31.27;18.80;;;;;;;-3.39;72.49;99045.23;2218046;80;21125;-78
2021/01/16 08:13:48;;;;;;;30.10;18.90;;;;;;;-3.37;72.52;99039.84;2218954;80;21248;-79
2021/01/16 08:16:50;;;;;;;28.63;18.63;;;;;;;-3.32;72.58;99040.66;2219198;80;21248;-79
2021/01/16 08:19:52;;;;;;;30.80;20.00;;;;;;;-3.25;72.42;99037.74;2218526;80;21256;-80
2021/01/16 08:22:53;;;;;;;30.63;18.57;;;;;;;-3.12;72.41;99039.46;2219375;80;21970;-79
2021/01/16 08:25:55;;;;;;;34.47;20.53;;;;;;;-3.01;72.23;99041.47;2217168;80;21619;-80
2021/01/16 08:28:56;;;;;;;30.47;17.87;;;;;;;-2.94;72.09;99043.66;2217132;80;21562;-78
2021/01/16 08:31:57;;;;;;;28.40;18.27;;;;;;;-2.86;71.99;99042.49;2218204;80;21268;-78
2021/01/16 08:34:59;;;;;;;30.33;18.93;;;;;;;-2.82;71.79;99044.86;2218529;80;21272;-81
2021/01/16 08:38:00;;;;;;;28.70;18.70;;;;;;;-2.79;71.80;99041.23;2218806;80;21244;-78
2021/01/16 08:41:04;;;;;;;33.90;20.07;;;;;;;-2.78;71.80;99044.28;2219290;80;21281;-80
2021/01/16 08:44:06;;;;;;;36.50;21.53;;;;;;;-2.81;71.70;99038.58;2219091;80;21268;-79
2021/01/16 08:47:07;;;;;;;33.37;20.87;;;;;;;-2.81;71.79;99039.86;2215182;80;21268;-80
2021/01/16 08:50:08;;;;;;;34.03;22.73;;;;;;;-2.88;71.78;99037.67;2209210;81;21287;-80
2021/01/16 08:53:09;;;;;;;25.10;18.23;;;;;;;-2.85;71.94;99044.27;2209369;81;21114;-81
2021/01/16 08:56:10;;;;;;;28.67;18.37;;;;;;;-2.74;72.00;99038.59;2209437;81;21144;-80
2021/01/16 08:59:11;;;;;;;26.40;16.97;;;;;;;-2.53;71.67;99040.05;2209816;81;21122;-80
2021/01/16 09:02:12;;;;;;;29.87;19.47;;;;;;;-2.29;71.39;99035.25;2209353;81;21181;-80
2021/01/16 09:05:13;;;;;;;29.00;19.27;;;;;;;-1.92;70.62;99030.81;2208201;81;21606;-81
2021/01/16 09:08:15;;;;;;;25.77;17.20;;;;;;;-1.50;70.13;99027.02;2209548;81;21165;-79
2021/01/16 09:11:16;;;;;;;48.27;30.53;;;;;;;-1.26;68.45;99017.39;2209245;81;21487;-81
2021/01/16 09:14:17;;;;;;;39.23;25.63;;;;;;;-1.36;68.68;99029.64;2209553;81;21130;-80
2021/01/16 09:17:19;;;;;;;37.27;24.50;;;;;;;-1.34;69.07;99022.94;2209118;81;21255;-81
2021/01/16 09:20:20;;;;;;;34.17;21.33;;;;;;;-1.38;69.25;99019.70;2208959;81;21316;-79
2021/01/16 09:23:21;;;;;;;33.50;22.30;;;;;;;-1.40;69.39;99023.84;2209593;81;21150;-81
2021/01/16 09:26:23;;;;;;;39.23;23.97;;;;;;;-1.37;69.15;99020.19;2210481;81;21435;-80
2021/01/16 09:29:24;;;;;;;40.87;23.37;;;;;;;-1.29;69.33;99010.41;2209859;81;21245;-79
2021/01/16 09:32:25;;;;;;;30.90;19.57;;;;;;;-1.13;68.79;99005.41;2209960;81;21142;-81
2021/01/16 09:35:26;;;;;;;34.80;22.13;;;;;;;-0.93;68.31;98998.91;2208933;81;21387;-79
2021/01/16 09:38:28;;;;;;;35.67;22.30;;;;;;;-0.83;68.48;99000.36;2209384;81;21268;-78
2021/01/16 09:41:29;;;;;;;38.23;24.33;;;;;;;-0.68;68.24;99000.86;2208372;81;21146;-78
2021/01/16 09:44:30;;;;;;;40.60;22.70;;;;;;;-0.57;67.94;99000.20;2207796;81;21451;-78
2021/01/16 09:47:32;;;;;;;43.03;24.10;;;;;;;-0.51;67.45;98999.27;2211944;80;21586;-80
2021/01/16 09:50:33;;;;;;;39.77;21.90;;;;;;;-0.77;67.65;98991.75;2216012;80;21241;-79
2021/01/16 09:53:34;;;;;;;41.97;24.03;;;;;;;-0.87;68.12;98984.29;2216025;80;21275;-78
2021/01/16 09:56:35;;;;;;;58.97;29.57;;;;;;;-0.98;68.26;98981.09;2216168;80;21241;-81
2021/01/16 09:59:36;;;;;;;47.73;27.43;;;;;;;-1.03;68.55;98987.63;2215719;80;21257;-77
2021/01/16 10:02:37;;;;;;;53.63;32.57;;;;;;;-1.06;68.40;98982.33;2215826;80;21590;-78
2021/01/16 10:05:38;;;;;;;42.37;25.73;;;;;;;-1.15;68.43;98988.19;2216817;80;21272;-80
2021/01/16 10:08:39;;;;;;;59.53;33.53;;;;;;;-1.39;68.49;98983.36;2215782;80;21118;-78
2021/01/16 10:11:40;;;;;;;50.67;28.87;;;;;;;-1.59;69.18;98976.54;2214436;80;21566;-78
2021/01/16 10:14:42;;;;;;;47.43;25.97;;;;;;;-1.63;69.34;98974.19;2216135;80;21253;-80
2021/01/16 10:17:43;;;;;;;37.30;21.50;;;;;;;-1.58;69.11;98967.67;2216522;80;21380;-79
2021/01/16 10:20:44;;;;;;;50.43;25.27;;;;;;;-1.46;68.93;98970.98;2216512;80;21276;-79
2021/01/16 10:23:45;;;;;;;41.00;25.63;;;;;;;-1.39;68.97;98966.72;2216653;80;21102;-79
2021/01/16 10:26:47;;;;;;;32.97;20.10;;;;;;;-1.36;69.35;98955.77;2216262;80;21133;-79
2021/01/16 10:29:48;;;;;;;48.77;27.37;;;;;;;-1.23;68.98;98936.90;2216178;80;21528;-78
2021/01/16 10:32:49;;;;;;;40.67;23.80;;;;;;;-1.21;68.84;98942.99;2216800;80;21114;-79
2021/01/16 10:35:51;;;;;;;45.73;25.60;;;;;;;-1.26;68.42;98941.44;2216354;80;21244;-78
2021/01/16 10:38:52;;;;;;;43.50;25.97;;;;;;;-1.34;68.57;98944.83;2215960;80;21149;-79
2021/01/16 10:41:53;;;;;;;51.27;27.00;;;;;;;-1.18;68.67;98938.05;2215521;80;21297;-79
2021/01/16 10:44:54;;;;;;;67.10;30.63;;;;;;;-1.14;68.05;98923.35;2214207;80;21244;-79
2021/01/16 10:47:55;;;;;;;43.57;24.70;;;;;;;-1.21;68.09;98923.39;2212289;80;21272;-78
2021/01/16 10:50:56;;;;;;;41.90;23.43;;;;;;;-1.06;67.90;98917.00;2208855;81;21129;-79
2021/01/16 10:53:58;;;;;;;46.80;21.57;;;;;;;-0.98;67.42;98911.52;2209608;81;21146;-79
2021/01/16 10:56:59;;;;;;;38.50;18.43;;;;;;;-0.85;66.20;98908.41;2208443;81;21133;-81
2021/01/16 11:00:00;;;;;;;48.30;21.20;;;;;;;-0.87;66.33;98905.73;2207944;81;21296;-80
2021/01/16 11:03:01;;;;;;;38.00;18.37;;;;;;;-1.04;65.90;98909.00;2207600;81;21304;-78
2021/01/16 11:06:02;;;;;;;54.50;21.93;;;;;;;-1.26;66.10;98899.19;2207872;81;21122;-78
2021/01/16 11:09:03;;;;;;;24.43;15.67;;;;;;;-1.34;67.06;98894.02;2208331;81;21252;-78
2021/01/16 11:12:04;;;;;;;20.53;13.73;;;;;;;-1.41;67.35;98897.89;2208992;81;21265;-80
2021/01/16 11:15:05;;;;;;;23.50;13.87;;;;;;;-1.52;67.23;98891.25;2208530;81;21146;-78
2021/01/16 11:18:06;;;;;;;27.93;17.03;;;;;;;-1.49;67.65;98885.42;2207880;81;21523;-79
2021/01/16 11:21:08;;;;;;;27.43;16.57;;;;;;;-1.39;68.35;98886.45;2210316;81;21284;-79
2021/01/16 11:24:09;;;;;;;24.90;17.60;;;;;;;-1.33;68.21;98884.25;2209410;81;21130;-79
2021/01/16 11:27:10;;;;;;;35.00;19.70;;;;;;;-1.36;67.74;98877.67;2209821;81;21271;-79
2021/01/16 11:30:11;;;;;;;34.93;18.37;;;;;;;-1.45;68.48;98881.86;2209973;81;21244;-80
2021/01/16 11:33:12;;;;;;;32.57;17.10;;;;;;;-1.43;68.88;98882.83;2209997;81;21098;-79
2021/01/16 11:36:14;;;;;;;38.70;19.23;;;;;;;-1.48;69.11;98872.72;2209685;81;21241;-80
2021/01/16 11:39:16;;;;;;;27.93;17.83;;;;;;;-1.48;69.31;98872.72;2209737;81;21546;-79
2021/01/16 11:42:17;;;;;;;25.53;17.03;;;;;;;-1.41;69.35;98877.41;2209967;81;21292;-80
2021/01/16 11:45:18;;;;;;;23.13;15.87;;;;;;;-1.44;68.89;98877.22;2210098;81;21265;-80
2021/01/16 11:48:20;;;;;;;23.17;15.67;;;;;;;-1.49;69.10;98868.78;2216059;80;21272;-79
2021/01/16 11:51:21;;;;;;;21.23;14.07;;;;;;;-1.53;69.03;98861.32;2220367;80;21252;-79
2021/01/16 11:54:22;;;;;;;38.47;19.13;;;;;;;-1.63;69.48;98866.69;2220112;80;21267;-79
2021/01/16 11:57:23;;;;;;;31.47;17.57;;;;;;;-1.64;69.81;98864.92;2220087;80;21237;-78
2021/01/16 12:00:24;;;;;;;42.93;24.63;;;;;;;-1.58;69.83;98854.16;2219977;80;21237;-79
2021/01/16 12:03:25;;;;;;;46.50;24.20;;;;;;;-1.46;69.86;98849.37;2219561;80;21256;-80
2021/01/16 12:06:27;;;;;;;33.97;20.17;;;;;;;-1.48;69.42;98857.36;2219005;80;21393;-79
2021/01/16 12:09:28;;;;;;;39.07;22.90;;;;;;;-1.57;69.62;98848.25;2219005;80;21272;-79
2021/01/16 12:12:29;;;;;;;32.37;20.73;;;;;;;-1.51;68.95;98844.77;2220066;80;21280;-79
2021/01/16 12:15:31;;;;;;;34.73;19.37;;;;;;;-1.51;68.65;98848.22;2220151;80;21258;-80
2021/01/16 12:18:32;;;;;;;27.67;18.57;;;;;;;-1.55;68.73;98845.39;2220166;80;22112;-79
2021/01/16 12:21:33;;;;;;;30.37;19.37;;;;;;;-1.67;69.06;98843.88;2220399;80;21196;-78
2021/01/16 12:24:34;;;;;;;28.57;17.70;;;;;;;-1.79;68.74;98834.15;2220475;80;21440;-80
2021/01/16 12:27:35;;;;;;;35.03;19.63;;;;;;;-1.95;69.02;98836.19;2220340;80;21232;-78
2021/01/16 12:30:36;;;;;;;29.27;18.43;;;;;;;-2.12;69.67;98834.68;2220156;80;21260;-79
2021/01/16 12:33:37;;;;;;;30.13;16.37;;;;;;;-2.25;70.27;98834.33;2220603;80;21276;-80
2021/01/16 12:36:38;;;;;;;31.67;18.87;;;;;;;-2.41;70.38;98829.95;2220236;80;21248;-79
2021/01/16 12:39:39;;;;;;;36.43;19.80;;;;;;;-2.41;70.89;98816.28;2220528;80;21287;-80
2021/01/16 12:42:41;;;;;;;36.70;20.93;;;;;;;-2.52;71.31;98819.45;2220086;80;21169;-80
2021/01/16 12:45:42;;;;;;;29.23;18.37;;;;;;;-2.57;71.45;98823.00;2221267;80;21767;-79
2021/01/16 12:48:43;;;;;;;26.17;16.87;;;;;;;-2.59;71.00;98824.97;2218452;80;21268;-79
2021/01/16 12:51:44;;;;;;;22.90;15.47;;;;;;;-2.75;71.95;98825.65;2217916;80;21137;-80
2021/01/16 12:54:45;;;;;;;32.80;19.83;;;;;;;-2.78;71.86;98822.02;2217633;80;21422;-80
2021/01/16 12:57:46;;;;;;;39.13;20.50;;;;;;;-2.68;72.35;98817.58;2217774;80;21133;-80
2021/01/16 13:00:48;;;;;;;36.27;20.63;;;;;;;-2.71;71.76;98812.67;2217412;80;21287;-79
2021/01/16 13:03:49;;;;;;;32.80;18.23;;;;;;;-2.70;71.66;98806.38;2216763;80;21157;-79
2021/01/16 13:06:51;;;;;;;24.37;16.10;;;;;;;-2.72;71.44;98809.23;2217348;80;21130;-79
2021/01/16 13:09:52;;;;;;;37.57;19.40;;;;;;;-2.69;70.84;98805.59;2216449;80;21249;-80
2021/01/16 13:12:53;;;;;;;22.93;15.10;;;;;;;-2.64;71.42;98802.93;2216925;80;21177;-79
2021/01/16 13:15:54;;;;;;;37.97;18.43;;;;;;;-2.63;69.94;98791.92;2216977;80;21546;-79
2021/01/16 13:18:55;;;;;;;29.50;16.07;;;;;;;-2.51;69.59;98792.22;2217458;80;21150;-78
2021/01/16 13:21:56;;;;;;;23.53;13.47;;;;;;;-2.49;69.03;98796.64;2217365;80;21178;-80
2021/01/16 13:24:57;;;;;;;24.10;14.17;;;;;;;-2.52;67.69;98795.56;2217363;80;21149;-80
2021/01/16 13:27:58;;;;;;;27.53;14.47;;;;;;;-2.66;67.58;98801.06;2217526;80;21106;-79
2021/01/16 13:31:00;;;;;;;25.77;14.30;;;;;;;-2.67;68.47;98793.80;2217675;80;21137;-79
2021/01/16 13:34:01;;;;;;;25.00;15.47;;;;;;;-2.71;68.36;98802.06;2217562;80;21265;-78
2021/01/16 13:37:02;;;;;;;24.77;14.63;;;;;;;-2.84;68.15;98796.97;2217312;80;21252;-79
2021/01/16 13:40:03;;;;;;;22.23;12.53;;;;;;;-2.90;68.46;98792.75;2216973;80;21186;-78
2021/01/16 13:43:04;;;;;;;22.67;12.17;;;;;;;-3.06;68.26;98783.63;2216826;80;21535;-80
2021/01/16 13:46:06;;;;;;;31.37;16.83;;;;;;;-3.15;69.00;98787.76;2217326;80;21256;-78
2021/01/16 13:49:06;;;;;;;36.13;17.13;;;;;;;-3.16;69.26;98783.83;2212195;80;21436;-79
2021/01/16 13:52:09;;;;;;;35.60;18.73;;;;;;;-3.22;69.86;98782.66;2210157;81;21133;-79